Time;durP1;ratioP1;P1;durP2;ratioP2;P2;SDS_P1;SDS_P2;PMS_P1;PMS_P2;Temp;Humidity;BMP_temperature;BMP_pressure;BME280_temperature;BME280_humidity;BME280_pressure;Samples;Min_cycle;Max_cycle;Signal;HPM_P1;HPM_P2
2022/08/23 00:01:55;;;;;;;9.87;5.20;;;20.50;99.90;;;;;;5064371;28;20029;-73
2022/08/23 00:04:24;;;;;;;6.22;4.97;;;20.50;99.90;;;;;;5055425;28;20263;-73
2022/08/23 00:06:51;;;;;;;11.95;5.22;;;20.50;99.90;;;;;;5055262;28;20029;-73
2022/08/23 00:09:19;;;;;;;8.07;4.75;;;20.40;99.90;;;;;;5055488;28;20346;-72
2022/08/23 00:11:54;;;;;;;8.10;5.03;;;20.40;99.90;;;;;;5054622;28;20369;-72
2022/08/23 00:14:26;;;;;;;11.82;4.90;;;20.40;99.90;;;;;;5055165;28;20028;-71
2022/08/23 00:16:53;;;;;;;7.00;5.07;;;20.30;99.90;;;;;;5051791;28;20025;-72
2022/08/23 00:19:21;;;;;;;8.98;5.38;;;20.30;99.90;;;;;;5054867;28;20018;-72
2022/08/23 00:21:48;;;;;;;9.40;5.72;;;20.30;99.90;;;;;;5055436;28;20025;-72
2022/08/23 00:24:15;;;;;;;11.07;5.53;;;20.30;99.90;;;;;;5055374;28;20032;-72
2022/08/23 00:27:13;;;;;;;14.30;5.55;;;20.20;99.90;;;;;;5053980;28;20231;-72
2022/08/23 00:29:38;;;;;;;7.80;5.32;;;20.20;99.90;;;;;;5054878;28;20024;-71
2022/08/23 00:32:06;;;;;;;8.35;5.30;;;20.20;99.90;;;;;;5055173;28;20028;-71
2022/08/23 00:34:33;;;;;;;7.07;5.13;;;20.20;99.90;;;;;;5055181;28;20028;-72
2022/08/23 00:36:59;;;;;;;9.57;5.60;;;20.20;99.90;;;;;;5054922;28;20021;-72
2022/08/23 00:39:25;;;;;;;11.60;5.78;;;20.10;99.90;;;;;;5055338;28;20108;-71
2022/08/23 00:41:55;;;;;;;8.73;5.47;;;20.10;99.90;;;;;;5036528;28;20032;-71
2022/08/23 00:50:15;;;;;;;10.98;5.25;;;20.00;99.90;;;;;;5055121;28;20094;-72
2022/08/23 00:53:11;;;;;;;8.45;5.35;;;20.00;99.90;;;;;;5054275;28;20029;-72
2022/08/23 00:55:39;;;;;;;10.60;5.68;;;20.00;99.90;;;;;;5054473;28;20045;-73
2022/08/23 00:58:07;;;;;;;9.20;5.85;;;20.00;99.90;;;;;;5058114;28;20230;-72
2022/08/23 01:00:33;;;;;;;12.27;6.28;;;19.90;99.90;;;;;;5054474;28;20654;-72
2022/08/23 01:03:00;;;;;;;10.43;5.25;;;19.90;99.90;;;;;;5063520;28;20109;-72
2022/08/23 01:05:31;;;;;;;11.23;5.75;;;19.80;99.90;;;;;;5063413;28;20033;-72
2022/08/23 01:07:58;;;;;;;11.68;5.43;;;19.80;99.90;;;;;;5061783;28;20033;-72
2022/08/23 01:10:38;;;;;;;5.68;4.88;;;19.70;99.90;;;;;;5036205;28;20068;-71
2022/08/23 01:13:18;;;;;;;6.70;5.47;;;19.70;99.90;;;;;;5053881;28;20086;-72
2022/08/23 01:15:56;;;;;;;8.45;5.40;;;19.70;99.90;;;;;;5054008;28;20029;-71
2022/08/23 01:18:25;;;;;;;7.10;4.78;;;19.70;99.90;;;;;;5053611;28;20109;-72
2022/08/23 01:21:02;;;;;;;7.15;4.70;;;19.70;99.90;;;;;;5054658;28;20082;-72
2022/08/23 01:23:47;;;;;;;9.10;4.97;;;19.70;99.90;;;;;;5053685;28;20029;-72
2022/08/23 01:26:16;;;;;;;13.27;5.80;;;19.70;99.90;;;;;;5053776;28;20037;-72
2022/08/23 01:28:42;;;;;;;10.23;6.00;;;19.70;99.90;;;;;;5053911;28;20087;-72
2022/08/23 01:31:09;;;;;;;10.30;5.15;;;19.70;99.90;;;;;;5054120;28;20116;-72
2022/08/23 01:33:40;;;;;;;9.25;5.85;;;19.60;99.90;;;;;;5054046;28;20379;-73
2022/08/23 01:36:09;;;;;;;10.45;5.32;;;19.60;99.90;;;;;;5054161;28;20017;-73
2022/08/23 01:38:35;;;;;;;6.93;6.10;;;19.50;99.90;;;;;;5053321;28;20037;-73
2022/08/23 01:41:01;;;;;;;9.07;6.25;;;19.50;99.90;;;;;;5054037;28;20040;-73
2022/08/23 01:43:26;;;;;;;11.05;6.82;;;19.50;99.90;;;;;;5035990;28;20057;-73
2022/08/23 01:45:52;;;;;;;11.68;7.28;;;19.40;99.90;;;;;;5052671;28;20496;-72
2022/08/23 01:48:19;;;;;;;13.10;9.25;;;19.40;99.90;;;;;;5053527;28;20021;-74
2022/08/23 01:50:45;;;;;;;13.52;7.32;;;19.30;99.90;;;;;;5053326;28;20087;-72
2022/08/23 01:53:11;;;;;;;15.73;8.18;;;19.30;99.90;;;;;;5052767;28;20362;-72
2022/08/23 01:55:39;;;;;;;13.90;8.10;;;19.30;99.90;;;;;;5053549;28;20108;-73
2022/08/23 01:58:06;;;;;;;10.25;8.05;;;19.30;99.90;;;;;;5053405;28;20149;-73
2022/08/23 02:00:36;;;;;;;11.00;7.45;;;19.30;99.90;;;;;;5053795;28;20032;-74
2022/08/23 02:03:03;;;;;;;8.10;7.28;;;19.30;99.90;;;;;;5053691;28;20017;-74
2022/08/23 02:05:29;;;;;;;12.75;7.05;;;19.30;99.90;;;;;;5053364;28;20021;-72
2022/08/23 02:07:55;;;;;;;7.70;6.35;;;19.30;99.90;;;;;;5053143;28;20138;-72
2022/08/23 02:10:22;;;;;;;11.15;7.28;;;19.20;99.90;;;;;;5053187;28;20428;-73
2022/08/23 02:12:48;;;;;;;11.32;6.50;;;19.20;99.90;;;;;;5052957;28;20044;-73
2022/08/23 02:15:15;;;;;;;10.48;7.47;;;19.20;99.90;;;;;;5053509;28;20021;-73
2022/08/23 02:17:40;;;;;;;11.43;7.70;;;19.20;99.90;;;;;;5052946;28;20028;-74
2022/08/23 02:20:07;;;;;;;10.20;8.60;;;19.20;99.90;;;;;;5053333;28;20036;-72
2022/08/23 02:22:33;;;;;;;9.88;7.32;;;19.20;99.90;;;;;;5052917;28;20025;-73
2022/08/23 02:24:59;;;;;;;11.73;7.57;;;19.10;99.90;;;;;;5053134;28;20032;-71
2022/08/23 02:27:25;;;;;;;9.10;6.72;;;19.10;99.90;;;;;;5052593;28;20017;-72
2022/08/23 02:29:51;;;;;;;10.30;7.43;;;19.10;99.90;;;;;;5053982;28;20021;-72
2022/08/23 02:32:18;;;;;;;11.30;7.88;;;19.00;99.90;;;;;;5072578;28;20025;-73
2022/08/23 02:34:45;;;;;;;9.70;7.57;;;19.00;99.90;;;;;;5051314;28;20020;-73
2022/08/23 02:37:13;;;;;;;11.32;8.00;;;19.00;99.90;;;;;;5052601;28;20025;-72
2022/08/23 02:39:40;;;;;;;13.55;8.70;;;18.90;99.90;;;;;;5052702;28;20457;-75
2022/08/23 02:42:07;;;;;;;11.93;8.00;;;19.00;99.90;;;;;;5053165;28;20044;-73
2022/08/23 02:44:34;;;;;;;12.23;8.25;;;18.90;99.90;;;;;;5052994;28;20021;-73
2022/08/23 02:47:01;;;;;;;14.25;8.50;;;18.90;99.90;;;;;;5052759;28;20025;-72
2022/08/23 02:49:28;;;;;;;9.40;7.43;;;18.80;99.90;;;;;;5052622;28;20096;-73
2022/08/23 02:51:54;;;;;;;8.30;7.22;;;18.80;99.90;;;;;;5034635;28;20028;-75
2022/08/23 02:54:20;;;;;;;10.55;7.82;;;18.80;99.90;;;;;;5052855;28;20025;-73
2022/08/23 02:56:46;;;;;;;11.18;7.22;;;18.80;99.90;;;;;;5040657;28;20024;-74
2022/08/23 02:59:12;;;;;;;9.52;6.90;;;18.70;99.90;;;;;;5052456;28;20107;-73
2022/08/23 03:01:38;;;;;;;10.77;7.65;;;18.70;99.90;;;;;;5052454;28;20032;-72
2022/08/23 03:04:06;;;;;;;9.48;7.18;;;18.70;99.90;;;;;;5052309;28;20029;-72
2022/08/23 03:06:33;;;;;;;7.80;7.00;;;18.80;99.90;;;;;;5052378;28;20025;-73
2022/08/23 03:08:59;;;;;;;8.45;6.80;;;18.70;99.90;;;;;;5052306;28;20021;-74
2022/08/23 03:11:25;;;;;;;12.23;7.75;;;18.70;99.90;;;;;;5034494;28;20029;-74
2022/08/23 03:13:52;;;;;;;8.70;6.78;;;18.60;99.90;;;;;;5052721;28;20025;-73
2022/08/23 03:16:18;;;;;;;7.65;6.22;;;18.70;99.90;;;;;;5052063;28;20025;-73
2022/08/23 03:18:44;;;;;;;10.73;6.60;;;18.60;99.90;;;;;;5052083;28;20021;-73
2022/08/23 03:21:10;;;;;;;7.22;6.45;;;18.60;99.90;;;;;;5052472;28;20360;-73
2022/08/23 03:23:37;;;;;;;9.40;6.45;;;18.60;99.90;;;;;;5052707;28;20029;-74
2022/08/23 03:26:05;;;;;;;10.07;6.40;;;18.60;99.90;;;;;;5052489;28;20036;-71
2022/08/23 03:28:34;;;;;;;7.53;6.80;;;18.70;99.90;;;;;;5052165;28;20060;-73
2022/08/23 03:30:59;;;;;;;9.95;6.93;;;18.60;99.90;;;;;;5052157;28;20103;-74
2022/08/23 03:33:25;;;;;;;9.23;6.75;;;18.70;99.90;;;;;;5052430;28;20446;-73
2022/08/23 03:35:51;;;;;;;9.82;6.75;;;18.70;99.90;;;;;;5052013;28;20040;-73
2022/08/23 03:38:18;;;;;;;6.85;6.15;;;18.60;99.90;;;;;;5052275;28;20032;-73
2022/08/23 03:40:44;;;;;;;8.30;6.45;;;18.70;99.90;;;;;;5052190;28;20033;-71
2022/08/23 03:43:10;;;;;;;11.27;5.75;;;18.60;99.90;;;;;;5051231;28;20406;-71
2022/08/23 03:45:36;;;;;;;8.18;6.68;;;18.70;99.90;;;;;;5050694;28;20037;-71
2022/08/23 03:48:02;;;;;;;7.72;7.07;;;18.60;99.90;;;;;;5052207;28;20475;-71
2022/08/23 03:50:28;;;;;;;9.75;7.07;;;18.60;99.90;;;;;;5051740;28;20473;-71
2022/08/23 03:52:54;;;;;;;11.30;7.25;;;18.60;99.90;;;;;;5052406;28;20070;-71
2022/08/23 03:55:19;;;;;;;8.70;6.90;;;18.60;99.90;;;;;;5052273;28;20021;-71
2022/08/23 03:57:45;;;;;;;8.68;6.78;;;18.60;99.90;;;;;;5051656;28;20044;-71
2022/08/23 04:00:13;;;;;;;8.90;7.40;;;18.60;99.90;;;;;;5051604;28;20025;-71
2022/08/23 04:02:39;;;;;;;8.18;6.20;;;18.60;99.90;;;;;;5051920;28;20017;-71
2022/08/23 04:05:09;;;;;;;8.63;5.97;;;18.60;99.90;;;;;;5050731;28;20032;-71
2022/08/23 04:07:37;;;;;;;7.45;6.72;;;18.60;99.90;;;;;;5052108;28;20087;-71
2022/08/23 04:10:04;;;;;;;9.27;6.85;;;18.60;99.90;;;;;;5033837;28;20104;-71
2022/08/23 04:12:30;;;;;;;10.27;6.78;;;18.50;99.90;;;;;;5051257;28;20029;-71
2022/08/23 04:14:56;;;;;;;11.30;6.72;;;18.50;99.90;;;;;;5052491;28;20096;-71
2022/08/23 04:17:21;;;;;;;12.02;6.63;;;18.50;99.90;;;;;;5055120;28;20025;-71
2022/08/23 04:19:48;;;;;;;10.23;6.20;;;18.40;99.90;;;;;;5055056;28;20039;-71
2022/08/23 04:22:15;;;;;;;10.60;6.85;;;18.40;99.90;;;;;;5022150;28;20061;-71
2022/08/23 04:24:41;;;;;;;8.05;6.63;;;18.50;99.90;;;;;;5035604;28;20537;-72
2022/08/23 04:27:08;;;;;;;6.90;6.20;;;18.50;99.90;;;;;;5035383;28;20108;-71
2022/08/23 04:29:34;;;;;;;11.27;7.70;;;18.40;99.90;;;;;;5036935;28;20458;-71
2022/08/23 04:32:01;;;;;;;9.00;7.07;;;18.50;99.90;;;;;;5037140;28;20021;-71
2022/08/23 04:34:27;;;;;;;9.70;7.40;;;18.50;99.90;;;;;;5054283;28;20052;-71
2022/08/23 04:36:53;;;;;;;12.75;7.00;;;18.50;99.90;;;;;;5055579;28;20049;-71
2022/08/23 04:39:19;;;;;;;8.95;6.72;;;18.50;99.90;;;;;;5054960;28;20035;-71
2022/08/23 04:44:29;;;;;;;9.68;7.45;;;18.60;99.90;;;;;;5034821;28;20091;-71
2022/08/23 04:46:54;;;;;;;8.55;6.20;;;18.60;99.90;;;;;;5035097;28;20125;-71
2022/08/23 04:49:22;;;;;;;7.80;7.00;;;18.50;99.90;;;;;;5036338;28;20023;-71
2022/08/23 04:51:48;;;;;;;11.43;7.63;;;18.60;99.90;;;;;;5036057;28;20396;-71
2022/08/23 04:54:14;;;;;;;8.38;6.40;;;18.60;99.90;;;;;;5054643;28;20400;-71
2022/08/23 04:56:40;;;;;;;10.02;7.40;;;18.60;99.90;;;;;;5054983;28;20025;-71
2022/08/23 04:59:06;;;;;;;15.20;8.75;;;18.60;99.90;;;;;;5054694;28;20032;-71
2022/08/23 05:01:33;;;;;;;13.93;9.27;;;18.60;99.90;;;;;;5053388;28;20029;-71
2022/08/23 05:03:59;;;;;;;12.75;8.60;;;18.70;99.90;;;;;;5054658;28;20452;-71
2022/08/23 05:06:26;;;;;;;13.95;8.60;;;18.70;99.90;;;;;;5054540;28;20043;-71
2022/08/23 05:08:52;;;;;;;12.55;7.32;;;18.70;99.90;;;;;;5054458;28;20028;-71
2022/08/23 05:11:18;;;;;;;9.95;7.05;;;18.70;99.90;;;;;;5053701;28;20033;-72
2022/08/23 05:13:44;;;;;;;10.95;6.97;;;18.80;99.90;;;;;;5054472;28;20477;-72
2022/08/23 05:16:09;;;;;;;10.68;7.25;;;18.80;99.90;;;;;;5054615;28;20056;-71
2022/08/23 05:18:35;;;;;;;9.13;8.13;;;18.80;99.90;;;;;;5054461;28;20021;-71
2022/08/23 05:21:02;;;;;;;14.77;9.07;;;18.90;99.90;;;;;;5054383;28;20033;-71
2022/08/23 05:23:28;;;;;;;10.68;9.65;;;18.90;99.90;;;;;;5054133;28;20029;-71
2022/08/23 05:25:54;;;;;;;12.57;8.98;;;18.90;99.90;;;;;;5053942;28;20035;-76
2022/08/23 05:28:23;;;;;;;17.85;9.82;;;18.90;99.90;;;;;;5053039;28;20029;-71
2022/08/23 05:30:57;;;;;;;14.23;9.50;;;18.90;99.90;;;;;;5035463;28;20362;-71
2022/08/23 05:33:23;;;;;;;15.20;10.57;;;18.90;99.90;;;;;;5054208;28;20024;-71
2022/08/23 05:35:49;;;;;;;15.43;10.93;;;19.00;99.90;;;;;;5053697;28;20036;-72
2022/08/23 05:38:15;;;;;;;18.63;12.18;;;19.00;99.90;;;;;;5053152;28;20025;-72
2022/08/23 05:40:40;;;;;;;16.90;11.10;;;19.10;99.90;;;;;;5054034;28;20035;-71
2022/08/23 05:43:06;;;;;;;18.83;12.52;;;19.10;99.90;;;;;;5035672;28;20389;-71
2022/08/23 05:45:31;;;;;;;13.60;12.07;;;19.20;99.90;;;;;;5053839;28;20037;-72
2022/08/23 05:47:57;;;;;;;19.13;11.15;;;19.20;99.90;;;;;;5054238;28;20025;-71
2022/08/23 05:50:23;;;;;;;10.93;8.50;;;19.30;99.90;;;;;;5053430;28;20422;-71
2022/08/23 05:52:48;;;;;;;12.10;8.30;;;19.30;99.90;;;;;;5053783;28;20032;-71
2022/08/23 05:55:14;;;;;;;11.15;7.78;;;19.30;99.90;;;;;;5035715;28;20017;-71
2022/08/23 05:57:40;;;;;;;17.50;12.05;;;19.40;99.90;;;;;;5053790;28;20033;-71
2022/08/23 06:00:11;;;;;;;10.60;6.72;;;19.30;99.90;;;;;;5053544;28;20067;-71
2022/08/23 06:02:37;;;;;;;15.98;8.65;;;19.40;99.90;;;;;;5067757;28;20060;-72
2022/08/23 06:05:04;;;;;;;14.60;8.43;;;19.40;99.90;;;;;;5049491;28;20028;-71
2022/08/23 06:07:30;;;;;;;8.52;7.68;;;19.50;99.90;;;;;;5071572;28;20032;-71
2022/08/23 06:09:55;;;;;;;14.65;8.07;;;19.50;99.90;;;;;;5073484;28;20028;-72
2022/08/23 06:12:21;;;;;;;10.60;7.10;;;19.50;99.90;;;;;;5070755;28;20025;-72
2022/08/23 06:14:47;;;;;;;10.93;8.43;;;19.60;99.90;;;;;;5052502;28;20492;-71
2022/08/23 06:17:12;;;;;;;13.82;8.40;;;19.70;99.90;;;;;;5038638;28;20112;-72
2022/08/23 06:19:38;;;;;;;13.50;8.60;;;19.70;99.90;;;;;;5047336;28;20014;-75
2022/08/23 06:22:04;;;;;;;19.15;7.82;;;19.70;99.90;;;;;;5053357;28;20040;-73
2022/08/23 06:24:29;;;;;;;13.38;8.48;;;19.60;99.90;;;;;;5052255;28;20013;-73
2022/08/23 06:26:55;;;;;;;16.30;8.30;;;19.60;99.90;;;;;;5053589;28;20025;-73
2022/08/23 06:29:21;;;;;;;12.75;8.30;;;19.70;99.90;;;;;;5052339;28;20025;-74
2022/08/23 06:31:49;;;;;;;15.55;9.02;;;19.70;99.90;;;;;;5034758;28;20033;-74
2022/08/23 06:34:22;;;;;;;16.55;9.40;;;19.60;99.90;;;;;;5034226;28;20032;-75
2022/08/23 06:36:54;;;;;;;15.57;9.95;;;19.70;99.90;;;;;;5052956;28;20029;-72
2022/08/23 06:39:23;;;;;;;13.98;10.18;;;19.80;99.90;;;;;;5052673;28;20468;-72
2022/08/23 06:41:50;;;;;;;13.00;9.90;;;19.70;99.90;;;;;;5035119;28;20452;-73
2022/08/23 06:44:17;;;;;;;23.38;13.48;;;19.80;99.90;;;;;;5051473;28;20025;-74
2022/08/23 06:46:44;;;;;;;23.40;15.70;;;19.90;99.90;;;;;;5053025;28;20033;-73
2022/08/23 06:49:10;;;;;;;22.63;17.42;;;20.00;99.90;;;;;;5051134;28;20023;-73
2022/08/23 06:51:37;;;;;;;27.35;18.42;;;20.00;99.90;;;;;;5052224;28;20404;-73
2022/08/23 06:54:07;;;;;;;27.45;18.85;;;20.10;99.90;;;;;;5034840;28;20458;-73
2022/08/23 06:56:34;;;;;;;29.40;20.88;;;20.10;99.90;;;;;;5053087;28;20040;-73
2022/08/23 06:59:03;;;;;;;26.05;19.92;;;20.10;99.90;;;;;;5057165;28;20032;-73
2022/08/23 07:01:34;;;;;;;25.95;19.05;;;20.20;99.90;;;;;;5051778;28;20025;-73
2022/08/23 07:04:03;;;;;;;33.17;21.67;;;20.30;99.90;;;;;;5051961;28;20044;-73
2022/08/23 07:06:29;;;;;;;19.60;14.65;;;20.30;99.90;;;;;;5060485;28;20035;-74
2022/08/23 07:08:55;;;;;;;19.95;14.75;;;20.40;99.90;;;;;;5057261;28;20024;-72
2022/08/23 07:11:22;;;;;;;31.67;19.92;;;20.40;99.90;;;;;;5062846;28;20492;-73
2022/08/23 07:13:48;;;;;;;19.00;12.80;;;20.50;99.90;;;;;;5063394;28;20110;-73
2022/08/23 07:16:16;;;;;;;16.60;12.75;;;20.50;99.90;;;;;;5071984;28;20063;-72
2022/08/23 07:18:44;;;;;;;32.88;21.83;;;20.50;99.90;;;;;;5060158;28;20033;-72
2022/08/23 07:21:11;;;;;;;32.88;20.83;;;20.60;99.90;;;;;;5052175;28;20024;-73
2022/08/23 07:23:38;;;;;;;30.58;20.17;;;20.70;99.90;;;;;;5052534;28;20075;-73
2022/08/23 07:26:09;;;;;;;28.17;21.10;;;20.80;99.90;;;;;;5051710;28;20037;-73
2022/08/23 07:28:36;;;;;;;30.80;20.80;;;21.00;99.90;;;;;;5052542;28;20021;-74
2022/08/23 07:31:15;;;;;;;32.30;20.30;;;21.10;99.90;;;;;;5051653;28;20476;-73
2022/08/23 07:33:43;;;;;;;26.60;18.98;;;21.20;99.90;;;;;;5051135;28;20520;-72
2022/08/23 07:36:12;;;;;;;29.08;17.42;;;21.20;99.90;;;;;;5048810;28;20029;-73
2022/08/23 07:38:37;;;;;;;26.73;18.20;;;21.20;99.90;;;;;;5059655;28;20024;-72
2022/08/23 07:41:03;;;;;;;35.08;20.75;;;21.30;99.90;;;;;;5056292;28;20082;-74
2022/08/23 07:43:32;;;;;;;39.22;22.17;;;21.30;99.90;;;;;;5061935;28;20066;-72
2022/08/23 07:45:57;;;;;;;29.75;21.10;;;21.50;99.90;;;;;;5062411;28;20037;-72
2022/08/23 07:48:23;;;;;;;38.13;21.10;;;21.60;99.90;;;;;;5058277;28;20071;-72
2022/08/23 07:50:58;;;;;;;34.90;21.42;;;21.70;99.90;;;;;;5062351;28;20384;-72
2022/08/23 07:53:24;;;;;;;30.45;19.33;;;21.80;99.90;;;;;;5063059;28;20449;-72
2022/08/23 07:55:50;;;;;;;32.97;20.73;;;22.00;99.90;;;;;;5075959;28;20021;-72
2022/08/23 07:58:16;;;;;;;34.75;19.58;;;22.00;99.90;;;;;;5076213;28;20438;-72
2022/08/23 08:00:42;;;;;;;24.40;16.85;;;22.20;99.90;;;;;;5070288;28;20052;-72
2022/08/23 08:03:09;;;;;;;24.75;14.43;;;22.20;99.90;;;;;;5066458;28;20059;-72
2022/08/23 08:05:35;;;;;;;26.33;18.13;;;22.10;99.90;;;;;;5062137;28;20448;-72
2022/08/23 08:08:03;;;;;;;29.85;18.63;;;22.20;99.90;;;;;;5068672;28;20083;-72
2022/08/23 08:10:29;;;;;;;34.40;19.73;;;22.30;99.90;;;;;;5047449;28;20031;-73
2022/08/23 08:12:55;;;;;;;24.20;18.02;;;22.30;99.90;;;;;;5035342;28;20030;-72
2022/08/23 08:15:21;;;;;;;31.15;20.15;;;22.50;99.90;;;;;;5034708;28;20393;-72
2022/08/23 08:17:48;;;;;;;29.40;20.58;;;22.50;99.90;;;;;;5068166;28;20182;-72
2022/08/23 08:20:14;;;;;;;33.72;19.08;;;22.60;99.90;;;;;;5034705;28;20438;-72
2022/08/23 08:22:41;;;;;;;30.50;20.08;;;22.80;99.90;;;;;;5035550;28;20064;-72
2022/08/23 08:25:08;;;;;;;33.35;20.20;;;22.80;99.90;;;;;;5038641;28;20091;-72
2022/08/23 08:27:33;;;;;;;30.48;21.10;;;23.00;99.90;;;;;;5055136;28;20477;-73
2022/08/23 08:29:59;;;;;;;29.35;19.63;;;23.00;99.90;;;;;;5053411;28;20130;-72
2022/08/23 08:32:24;;;;;;;31.95;18.92;;;23.00;99.90;;;;;;5054797;28;20053;-73
2022/08/23 08:34:50;;;;;;;33.83;20.45;;;23.10;99.90;;;;;;5055299;28;20362;-72
2022/08/23 08:37:16;;;;;;;29.85;16.25;;;23.10;99.90;;;;;;5054854;28;20029;-73
2022/08/23 08:39:44;;;;;;;25.45;13.15;;;23.20;99.90;;;;;;5055107;28;20441;-73
2022/08/23 08:42:45;;;;;;;32.13;18.67;;;23.30;99.90;;;;;;5042773;28;20041;-75
2022/08/23 08:45:31;;;;;;;28.10;18.30;;;23.40;99.90;;;;;;5048226;28;20029;-72
2022/08/23 08:48:07;;;;;;;23.35;13.65;;;23.60;99.90;;;;;;5053131;28;20090;-73
2022/08/23 08:50:36;;;;;;;21.27;13.63;;;23.60;99.90;;;;;;5054152;28;20021;-73
2022/08/23 08:53:06;;;;;;;25.77;16.08;;;23.80;99.90;;;;;;5053728;28;20028;-72
2022/08/23 08:55:37;;;;;;;21.92;15.30;;;23.90;99.90;;;;;;5045798;28;20021;-73
2022/08/23 08:58:06;;;;;;;22.03;13.70;;;24.00;99.90;;;;;;5053295;28;20033;-72
2022/08/23 09:00:37;;;;;;;28.92;17.83;;;24.30;99.90;;;;;;5053562;28;20108;-74
2022/08/23 09:03:13;;;;;;;24.55;15.98;;;24.40;99.90;;;;;;5037530;28;20030;-73
2022/08/23 09:05:48;;;;;;;21.88;12.30;;;24.60;99.90;;;;;;5037321;28;20350;-75
2022/08/23 09:08:59;;;;;;;23.52;11.35;;;24.80;99.90;;;;;;5053151;28;20024;-73
2022/08/23 09:11:49;;;;;;;20.10;10.50;;;25.00;99.90;;;;;;5030787;28;20560;-74
2022/08/23 09:14:33;;;;;;;21.60;10.02;;;25.10;99.90;;;;;;5042499;28;20033;-73
2022/08/23 09:17:07;;;;;;;19.63;9.85;;;25.30;99.90;;;;;;5039506;28;20029;-73
2022/08/23 09:19:36;;;;;;;20.17;9.80;;;25.50;99.90;;;;;;5037331;28;20096;-73
2022/08/23 09:22:13;;;;;;;17.10;8.93;;;25.50;99.90;;;;;;5053599;28;20044;-72
2022/08/23 09:24:40;;;;;;;18.33;9.52;;;25.80;99.90;;;;;;5053189;28;20086;-72
2022/08/23 09:27:08;;;;;;;18.17;9.23;;;25.90;99.90;;;;;;5053440;28;20037;-72
2022/08/23 09:29:36;;;;;;;22.17;9.95;;;26.10;99.90;;;;;;5041879;28;20048;-72
2022/08/23 09:32:23;;;;;;;15.88;9.15;;;26.20;99.90;;;;;;5043504;28;20078;-72
2022/08/23 09:34:49;;;;;;;14.20;7.35;;;26.30;99.90;;;;;;5047452;28;20080;-73
2022/08/23 09:37:23;;;;;;;19.02;8.77;;;26.40;99.90;;;;;;5056737;28;20064;-72
2022/08/23 09:39:52;;;;;;;14.75;8.25;;;26.60;99.90;;;;;;5059376;28;20028;-72
2022/08/23 09:42:35;;;;;;;16.20;8.23;;;26.70;99.90;;;;;;5058510;28;20040;-72
2022/08/23 09:45:04;;;;;;;14.45;6.72;;;26.90;99.90;;;;;;5045654;28;20032;-72
2022/08/23 09:47:40;;;;;;;8.40;5.38;;;27.00;99.90;;;;;;5044503;28;20087;-72
2022/08/23 09:50:15;;;;;;;9.77;5.60;;;27.10;99.90;;;;;;5050645;28;20465;-72
2022/08/23 09:52:42;;;;;;;11.93;5.10;;;27.20;99.90;;;;;;5052249;28;20021;-72
2022/08/23 09:55:24;;;;;;;11.13;5.32;;;27.30;99.90;;;;;;5039278;28;20103;-72
2022/08/23 09:57:50;;;;;;;13.32;5.32;;;27.40;99.90;;;;;;5052642;28;20025;-72
2022/08/23 10:00:16;;;;;;;13.25;5.32;;;27.50;99.90;;;;;;5052575;28;20372;-72
2022/08/23 10:02:42;;;;;;;11.05;5.15;;;27.60;99.90;;;;;;5052429;28;20036;-72
2022/08/23 10:05:14;;;;;;;13.50;5.05;;;27.60;99.90;;;;;;5043683;28;20033;-72
2022/08/23 10:07:42;;;;;;;10.30;4.80;;;27.80;99.90;;;;;;5052753;28;20033;-72
2022/08/23 10:10:17;;;;;;;9.82;5.22;;;27.80;99.90;;;;;;5044066;28;20288;-72
2022/08/23 10:12:42;;;;;;;10.90;5.95;;;28.00;99.90;;;;;;5044673;28;20350;-72
2022/08/23 10:15:08;;;;;;;13.25;4.72;;;28.00;99.90;;;;;;5035975;28;20025;-72
2022/08/23 10:18:16;;;;;;;11.98;5.10;;;28.00;99.90;;;;;;5052631;28;20021;-72
2022/08/23 10:21:06;;;;;;;12.35;4.70;;;28.20;99.90;;;;;;5013290;28;20115;-72
2022/08/23 10:23:37;;;;;;;12.65;4.72;;;28.40;99.90;;;;;;5017877;28;20056;-72
2022/08/23 10:26:09;;;;;;;9.25;4.05;;;28.50;99.90;;;;;;5051033;28;20044;-72
2022/08/23 10:32:04;;;;;;;8.68;3.53;;;28.50;99.90;;;;;;5036970;28;20052;-73
2022/08/23 10:34:38;;;;;;;;;;;28.40;99.10;;;;;;5033652;28;20469;-72
2022/08/23 10:37:22;;;;;;;4.25;2.75;;;28.30;99.90;;;;;;5052605;28;19912;-72
2022/08/23 10:40:38;;;;;;;4.85;2.63;;;28.30;99.90;;;;;;5051690;28;20550;-72
2022/08/23 10:43:13;;;;;;;7.32;2.60;;;28.50;99.90;;;;;;5047854;28;20370;-72
2022/08/23 10:45:42;;;;;;;5.13;2.05;;;28.50;99.60;;;;;;5018298;28;20055;-73
2022/08/23 10:48:27;;;;;;;10.23;2.50;;;28.80;98.50;;;;;;5051510;28;20036;-72
2022/08/23 10:50:58;;;;;;;7.93;2.88;;;29.00;98.90;;;;;;5033468;28;20021;-72
2022/08/23 10:53:44;;;;;;;6.47;2.70;;;29.20;98.50;;;;;;5048322;28;20075;-72
2022/08/23 10:56:15;;;;;;;5.30;2.58;;;29.10;98.50;;;;;;5037427;28;20133;-72
2022/08/23 10:58:54;;;;;;;8.35;2.95;;;29.00;98.50;;;;;;5043981;28;20024;-72
2022/08/23 11:01:24;;;;;;;5.32;2.40;;;29.00;97.30;;;;;;5051168;28;20044;-72
2022/08/23 11:04:04;;;;;;;5.68;2.83;;;29.00;99.10;;;;;;5049800;28;20031;-72
2022/08/23 11:06:36;;;;;;;10.43;2.08;;;29.20;97.60;;;;;;5051815;28;20043;-72
2022/08/23 11:09:04;;;;;;;3.97;2.47;;;29.20;97.30;;;;;;5051359;28;20021;-72
2022/08/23 11:11:47;;;;;;;4.57;2.40;;;29.30;97.90;;;;;;5034569;28;20031;-72
2022/08/23 11:14:44;;;;;;;7.57;2.47;;;29.60;98.20;;;;;;5024026;28;20033;-72
2022/08/23 11:17:31;;;;;;;4.93;2.40;;;29.80;96.30;;;;;;5047961;28;20017;-71
2022/08/23 11:20:07;;;;;;;7.53;2.17;;;29.70;97.10;;;;;;5035589;28;20037;-72
2022/08/23 11:22:56;;;;;;;6.18;2.05;;;29.80;96.70;;;;;;5045569;28;20140;-72
2022/08/23 11:25:24;;;;;;;4.38;2.75;;;29.80;96.20;;;;;;5025395;28;20037;-72
2022/08/23 11:28:09;;;;;;;4.82;1.98;;;29.60;96.30;;;;;;5055537;28;20459;-72
2022/08/23 11:30:42;;;;;;;3.47;1.80;;;29.70;97.10;;;;;;5054921;28;20098;-72
2022/08/23 11:33:14;;;;;;;3.67;2.25;;;29.60;95.00;;;;;;5044102;28;20075;-72
2022/08/23 11:35:47;;;;;;;4.23;2.27;;;29.70;95.50;;;;;;5054848;28;20025;-73
2022/08/23 11:38:14;;;;;;;8.52;2.10;;;29.70;95.90;;;;;;5054515;28;20028;-72
2022/08/23 11:40:54;;;;;;;3.63;1.60;;;29.50;95.30;;;;;;5055223;28;20083;-72
2022/08/23 11:43:36;;;;;;;6.32;2.15;;;29.60;96.60;;;;;;5052545;28;20108;-72
2022/08/23 11:46:14;;;;;;;4.55;2.08;;;29.50;96.30;;;;;;5042594;28;20032;-72
2022/08/23 11:48:45;;;;;;;7.28;1.92;;;29.40;95.70;;;;;;5054748;28;20053;-72
2022/08/23 11:51:16;;;;;;;6.93;2.20;;;29.50;95.80;;;;;;5036188;28;20052;-73
2022/08/23 11:53:48;;;;;;;6.30;2.38;;;29.70;95.80;;;;;;5046764;28;20290;-72
2022/08/23 11:56:42;;;;;;;3.17;1.38;;;29.80;95.50;;;;;;5036729;28;20029;-72
2022/08/23 11:59:41;;;;;;;5.85;2.17;;;29.50;95.00;;;;;;5054327;28;20041;-72
2022/08/23 12:02:30;;;;;;;5.70;2.30;;;30.00;95.80;;;;;;5052267;28;20037;-72
2022/08/23 12:05:00;;;;;;;9.27;2.10;;;30.30;94.90;;;;;;5040070;28;20064;-72
2022/08/23 12:07:44;;;;;;;3.67;1.77;;;30.50;95.60;;;;;;5054279;28;20410;-72
2022/08/23 12:10:09;;;;;;;2.97;2.00;;;30.60;94.50;;;;;;5036710;28;20025;-72
2022/08/23 12:12:36;;;;;;;3.38;1.85;;;30.40;94.70;;;;;;5053971;28;20037;-73
2022/08/23 12:15:06;;;;;;;4.47;1.70;;;30.00;94.70;;;;;;5051181;28;20029;-72
2022/08/23 12:17:38;;;;;;;5.35;1.52;;;29.70;94.60;;;;;;5046692;28;20017;-71
2022/08/23 12:20:04;;;;;;;7.40;2.20;;;29.30;95.30;;;;;;5038358;28;20037;-72
2022/08/23 12:22:53;;;;;;;3.70;2.40;;;29.20;96.30;;;;;;5062261;28;20028;-72
2022/08/23 12:25:21;;;;;;;3.20;1.90;;;29.20;96.50;;;;;;5035260;28;20349;-72
2022/08/23 12:28:06;;;;;;;5.75;1.90;;;29.20;96.40;;;;;;5060026;28;20663;-72
2022/08/23 12:30:54;;;;;;;4.70;2.03;;;29.40;97.80;;;;;;5059491;28;20051;-72
2022/08/23 12:33:45;;;;;;;5.07;2.33;;;29.50;95.90;;;;;;5061955;28;20469;-72
2022/08/23 12:36:19;;;;;;;3.55;2.30;;;29.40;97.50;;;;;;5058718;28;20031;-72
2022/08/23 12:38:50;;;;;;;6.10;2.28;;;29.40;97.20;;;;;;5062951;28;20021;-72
2022/08/23 12:41:28;;;;;;;9.97;1.63;;;29.30;95.90;;;;;;5042351;28;20032;-72
2022/08/23 12:44:17;;;;;;;4.65;1.63;;;29.60;95.30;;;;;;5060153;28;20100;-72
2022/08/23 12:46:45;;;;;;;4.25;2.08;;;29.60;96.10;;;;;;5061029;28;20036;-73
2022/08/23 12:49:23;;;;;;;2.30;1.70;;;29.50;96.10;;;;;;5060822;28;20350;-72
2022/08/23 12:51:52;;;;;;;3.75;1.67;;;29.40;97.30;;;;;;5059639;28;20143;-72
2022/08/23 12:54:22;;;;;;;6.60;2.03;;;29.20;95.30;;;;;;5058886;28;20017;-72
2022/08/23 12:56:52;;;;;;;4.13;1.63;;;29.00;95.40;;;;;;5056134;28;20049;-72
2022/08/23 12:59:43;;;;;;;8.02;2.13;;;29.00;96.10;;;;;;5043997;28;20032;-72
2022/08/23 13:02:30;;;;;;;6.78;1.75;;;28.80;98.80;;;;;;5053024;28;20032;-72
2022/08/23 13:05:05;;;;;;;6.05;2.15;;;28.80;99.80;;;;;;5052881;28;20091;-72
2022/08/23 13:07:31;;;;;;;2.08;1.60;;;28.80;99.40;;;;;;5018854;28;20033;-72